sensor_id;sensor_type;location;lat;lon;timestamp;temperature;humidity
38784;DHT22;24531;45.502;12.238;2023-05-07T00:00:37;20.80;88.00
38784;DHT22;24531;45.502;12.238;2023-05-07T00:03:03;20.80;88.00
38784;DHT22;24531;45.502;12.238;2023-05-07T00:05:29;20.70;88.00
38784;DHT22;24531;45.502;12.238;2023-05-07T00:07:55;20.70;88.20
38784;DHT22;24531;45.502;12.238;2023-05-07T00:10:20;20.70;88.40
38784;DHT22;24531;45.502;12.238;2023-05-07T00:12:46;20.70;88.30
38784;DHT22;24531;45.502;12.238;2023-05-07T00:15:11;20.70;88.20
38784;DHT22;24531;45.502;12.238;2023-05-07T00:17:37;20.70;88.40
38784;DHT22;24531;45.502;12.238;2023-05-07T00:20:04;20.70;88.40
38784;DHT22;24531;45.502;12.238;2023-05-07T00:22:30;20.60;88.50
38784;DHT22;24531;45.502;12.238;2023-05-07T00:24:56;20.60;88.60
38784;DHT22;24531;45.502;12.238;2023-05-07T00:27:22;20.60;88.80
38784;DHT22;24531;45.502;12.238;2023-05-07T00:29:48;20.50;88.90
38784;DHT22;24531;45.502;12.238;2023-05-07T00:32:13;20.50;89.00
38784;DHT22;24531;45.502;12.238;2023-05-07T00:34:39;20.60;89.00
38784;DHT22;24531;45.502;12.238;2023-05-07T00:37:05;20.60;89.10
38784;DHT22;24531;45.502;12.238;2023-05-07T00:39:33;20.60;89.20
38784;DHT22;24531;45.502;12.238;2023-05-07T00:41:59;20.60;89.30
38784;DHT22;24531;45.502;12.238;2023-05-07T00:44:26;20.60;89.30
38784;DHT22;24531;45.502;12.238;2023-05-07T00:46:52;20.60;89.40
38784;DHT22;24531;45.502;12.238;2023-05-07T00:49:18;20.60;89.50
38784;DHT22;24531;45.502;12.238;2023-05-07T00:51:45;20.60;89.60
38784;DHT22;24531;45.502;12.238;2023-05-07T00:54:11;20.50;89.70
38784;DHT22;24531;45.502;12.238;2023-05-07T00:56:36;20.50;89.80
38784;DHT22;24531;45.502;12.238;2023-05-07T00:59:03;20.50;89.90
38784;DHT22;24531;45.502;12.238;2023-05-07T01:01:29;20.40;89.90
38784;DHT22;24531;45.502;12.238;2023-05-07T01:03:55;20.50;90.00
38784;DHT22;24531;45.502;12.238;2023-05-07T01:06:21;20.40;90.00
38784;DHT22;24531;45.502;12.238;2023-05-07T01:08:48;20.40;90.00
38784;DHT22;24531;45.502;12.238;2023-05-07T01:11:16;20.50;90.00
38784;DHT22;24531;45.502;12.238;2023-05-07T01:13:43;20.40;90.10
38784;DHT22;24531;45.502;12.238;2023-05-07T01:16:09;20.40;90.10
38784;DHT22;24531;45.502;12.238;2023-05-07T01:18:35;20.40;90.10
38784;DHT22;24531;45.502;12.238;2023-05-07T01:21:01;20.30;90.10
38784;DHT22;24531;45.502;12.238;2023-05-07T01:23:29;20.20;90.20
38784;DHT22;24531;45.502;12.238;2023-05-07T01:25:56;20.20;90.20
38784;DHT22;24531;45.502;12.238;2023-05-07T01:28:21;20.10;90.30
38784;DHT22;24531;45.502;12.238;2023-05-07T01:31:02;20.20;90.40
38784;DHT22;24531;45.502;12.238;2023-05-07T01:33:33;20.20;90.40
38784;DHT22;24531;45.502;12.238;2023-05-07T01:36:00;20.10;90.40
38784;DHT22;24531;45.502;12.238;2023-05-07T01:38:28;20.10;90.40
38784;DHT22;24531;45.502;12.238;2023-05-07T01:40:53;20.10;90.40
38784;DHT22;24531;45.502;12.238;2023-05-07T01:43:19;20.10;90.40
38784;DHT22;24531;45.502;12.238;2023-05-07T01:45:46;20.00;90.40
38784;DHT22;24531;45.502;12.238;2023-05-07T01:48:14;20.00;90.50
38784;DHT22;24531;45.502;12.238;2023-05-07T01:50:41;19.90;90.60
38784;DHT22;24531;45.502;12.238;2023-05-07T01:53:07;19.90;90.70
38784;DHT22;24531;45.502;12.238;2023-05-07T01:55:32;19.90;90.70
38784;DHT22;24531;45.502;12.238;2023-05-07T01:57:58;19.90;90.70
38784;DHT22;24531;45.502;12.238;2023-05-07T02:00:24;19.90;90.70
38784;DHT22;24531;45.502;12.238;2023-05-07T02:02:49;19.80;90.80
38784;DHT22;24531;45.502;12.238;2023-05-07T02:05:15;19.90;90.80
38784;DHT22;24531;45.502;12.238;2023-05-07T02:07:41;19.80;90.80
38784;DHT22;24531;45.502;12.238;2023-05-07T02:10:07;19.80;90.90
38784;DHT22;24531;45.502;12.238;2023-05-07T02:12:32;19.80;90.90
38784;DHT22;24531;45.502;12.238;2023-05-07T02:14:58;19.90;90.90
38784;DHT22;24531;45.502;12.238;2023-05-07T02:17:23;19.90;90.90
38784;DHT22;24531;45.502;12.238;2023-05-07T02:19:49;19.90;90.90
38784;DHT22;24531;45.502;12.238;2023-05-07T02:22:15;19.80;90.90
38784;DHT22;24531;45.502;12.238;2023-05-07T02:24:40;19.80;90.90
38784;DHT22;24531;45.502;12.238;2023-05-07T02:27:06;19.80;91.00
38784;DHT22;24531;45.502;12.238;2023-05-07T02:29:32;19.70;91.00
38784;DHT22;24531;45.502;12.238;2023-05-07T02:31:57;19.70;91.00
38784;DHT22;24531;45.502;12.238;2023-05-07T02:34:23;19.70;91.00
38784;DHT22;24531;45.502;12.238;2023-05-07T02:36:48;19.70;91.10
38784;DHT22;24531;45.502;12.238;2023-05-07T02:39:14;19.70;91.20
38784;DHT22;24531;45.502;12.238;2023-05-07T02:41:40;19.60;91.30
38784;DHT22;24531;45.502;12.238;2023-05-07T02:44:06;19.60;91.40
38784;DHT22;24531;45.502;12.238;2023-05-07T02:46:32;19.70;91.40
38784;DHT22;24531;45.502;12.238;2023-05-07T02:48:57;19.70;91.40
38784;DHT22;24531;45.502;12.238;2023-05-07T02:51:23;19.70;91.40
38784;DHT22;24531;45.502;12.238;2023-05-07T02:53:49;19.70;91.40
38784;DHT22;24531;45.502;12.238;2023-05-07T02:56:14;19.70;91.40
38784;DHT22;24531;45.502;12.238;2023-05-07T02:58:40;19.60;91.40
38784;DHT22;24531;45.502;12.238;2023-05-07T03:01:08;19.50;91.40
38784;DHT22;24531;45.502;12.238;2023-05-07T03:03:34;19.50;91.60
38784;DHT22;24531;45.502;12.238;2023-05-07T03:06:00;19.50;91.60
38784;DHT22;24531;45.502;12.238;2023-05-07T03:08:26;19.50;91.70
38784;DHT22;24531;45.502;12.238;2023-05-07T03:10:52;19.50;91.70
38784;DHT22;24531;45.502;12.238;2023-05-07T03:13:18;19.40;91.60
38784;DHT22;24531;45.502;12.238;2023-05-07T03:15:43;19.40;91.60
38784;DHT22;24531;45.502;12.238;2023-05-07T03:18:09;19.30;91.70
38784;DHT22;24531;45.502;12.238;2023-05-07T03:20:35;19.40;91.60
38784;DHT22;24531;45.502;12.238;2023-05-07T03:23:02;19.30;91.60
38784;DHT22;24531;45.502;12.238;2023-05-07T03:25:28;19.30;91.60
38784;DHT22;24531;45.502;12.238;2023-05-07T03:27:55;19.30;92.00
38784;DHT22;24531;45.502;12.238;2023-05-07T03:30:21;19.30;91.60
38784;DHT22;24531;45.502;12.238;2023-05-07T03:32:47;19.30;91.60
38784;DHT22;24531;45.502;12.238;2023-05-07T03:35:12;19.30;91.50
38784;DHT22;24531;45.502;12.238;2023-05-07T03:37:38;19.20;91.50
38784;DHT22;24531;45.502;12.238;2023-05-07T03:40:05;19.20;91.60
38784;DHT22;24531;45.502;12.238;2023-05-07T03:42:31;19.10;91.60
38784;DHT22;24531;45.502;12.238;2023-05-07T03:44:56;19.20;91.70
38784;DHT22;24531;45.502;12.238;2023-05-07T03:47:22;19.20;91.70
38784;DHT22;24531;45.502;12.238;2023-05-07T03:49:48;19.20;91.70
38784;DHT22;24531;45.502;12.238;2023-05-07T03:52:14;19.20;91.60
38784;DHT22;24531;45.502;12.238;2023-05-07T03:54:40;19.20;91.70
38784;DHT22;24531;45.502;12.238;2023-05-07T03:57:06;19.20;91.60
38784;DHT22;24531;45.502;12.238;2023-05-07T03:59:31;19.20;91.70
38784;DHT22;24531;45.502;12.238;2023-05-07T04:01:58;19.20;91.70
38784;DHT22;24531;45.502;12.238;2023-05-07T04:04:23;19.10;91.70
38784;DHT22;24531;45.502;12.238;2023-05-07T04:06:49;19.10;91.80
38784;DHT22;24531;45.502;12.238;2023-05-07T04:09:15;19.10;91.90
38784;DHT22;24531;45.502;12.238;2023-05-07T04:11:40;19.10;92.00
38784;DHT22;24531;45.502;12.238;2023-05-07T04:14:06;19.20;92.10
38784;DHT22;24531;45.502;12.238;2023-05-07T04:16:32;19.10;92.10
38784;DHT22;24531;45.502;12.238;2023-05-07T04:18:57;19.10;92.00
38784;DHT22;24531;45.502;12.238;2023-05-07T04:21:23;19.20;92.10
38784;DHT22;24531;45.502;12.238;2023-05-07T04:23:49;19.20;92.10
38784;DHT22;24531;45.502;12.238;2023-05-07T04:26:15;19.20;92.10
38784;DHT22;24531;45.502;12.238;2023-05-07T04:28:41;19.20;92.60
38784;DHT22;24531;45.502;12.238;2023-05-07T04:31:07;19.20;92.30
38784;DHT22;24531;45.502;12.238;2023-05-07T04:33:33;19.20;92.30
38784;DHT22;24531;45.502;12.238;2023-05-07T04:36:03;19.20;92.70
38784;DHT22;24531;45.502;12.238;2023-05-07T04:38:30;19.20;92.40
38784;DHT22;24531;45.502;12.238;2023-05-07T04:40:57;19.10;92.40
38784;DHT22;24531;45.502;12.238;2023-05-07T04:43:22;19.20;92.50
38784;DHT22;24531;45.502;12.238;2023-05-07T04:45:50;19.10;92.50
38784;DHT22;24531;45.502;12.238;2023-05-07T04:48:16;19.20;92.70
38784;DHT22;24531;45.502;12.238;2023-05-07T04:50:46;19.30;92.70
38784;DHT22;24531;45.502;12.238;2023-05-07T04:53:12;19.30;92.70
38784;DHT22;24531;45.502;12.238;2023-05-07T04:55:38;19.30;92.70
38784;DHT22;24531;45.502;12.238;2023-05-07T04:58:03;19.30;92.70
38784;DHT22;24531;45.502;12.238;2023-05-07T05:00:30;19.30;92.70
38784;DHT22;24531;45.502;12.238;2023-05-07T05:02:56;19.40;92.80
38784;DHT22;24531;45.502;12.238;2023-05-07T05:05:21;19.40;92.80
38784;DHT22;24531;45.502;12.238;2023-05-07T05:07:47;19.50;92.90
38784;DHT22;24531;45.502;12.238;2023-05-07T05:10:12;19.50;92.80
38784;DHT22;24531;45.502;12.238;2023-05-07T05:12:38;19.50;92.80
38784;DHT22;24531;45.502;12.238;2023-05-07T05:15:04;19.60;92.80
38784;DHT22;24531;45.502;12.238;2023-05-07T05:17:30;19.60;92.80
38784;DHT22;24531;45.502;12.238;2023-05-07T05:19:56;19.70;92.90
38784;DHT22;24531;45.502;12.238;2023-05-07T05:22:21;19.80;92.90
38784;DHT22;24531;45.502;12.238;2023-05-07T05:24:47;19.80;92.90
38784;DHT22;24531;45.502;12.238;2023-05-07T05:27:13;19.90;92.90
38784;DHT22;24531;45.502;12.238;2023-05-07T05:29:39;20.00;92.80
38784;DHT22;24531;45.502;12.238;2023-05-07T05:32:05;20.00;92.90
38784;DHT22;24531;45.502;12.238;2023-05-07T05:34:30;20.10;92.90
38784;DHT22;24531;45.502;12.238;2023-05-07T05:36:56;20.10;92.90
38784;DHT22;24531;45.502;12.238;2023-05-07T05:39:22;20.10;92.90
38784;DHT22;24531;45.502;12.238;2023-05-07T05:41:48;20.30;92.90
38784;DHT22;24531;45.502;12.238;2023-05-07T05:44:14;20.30;92.90
38784;DHT22;24531;45.502;12.238;2023-05-07T05:46:39;20.40;92.90
38784;DHT22;24531;45.502;12.238;2023-05-07T05:49:05;20.50;92.90
38784;DHT22;24531;45.502;12.238;2023-05-07T05:51:31;20.60;92.90
38784;DHT22;24531;45.502;12.238;2023-05-07T05:53:56;20.80;92.80
38784;DHT22;24531;45.502;12.238;2023-05-07T05:56:22;20.90;92.80
38784;DHT22;24531;45.502;12.238;2023-05-07T05:58:48;21.00;92.70
38784;DHT22;24531;45.502;12.238;2023-05-07T06:01:13;21.10;92.50
38784;DHT22;24531;45.502;12.238;2023-05-07T06:03:39;21.20;92.30
38784;DHT22;24531;45.502;12.238;2023-05-07T06:06:05;21.30;92.60
38784;DHT22;24531;45.502;12.238;2023-05-07T06:08:30;21.30;92.20
38784;DHT22;24531;45.502;12.238;2023-05-07T06:10:56;21.50;92.10
38784;DHT22;24531;45.502;12.238;2023-05-07T06:13:22;21.60;91.80
38784;DHT22;24531;45.502;12.238;2023-05-07T06:15:49;21.70;91.60
38784;DHT22;24531;45.502;12.238;2023-05-07T06:18:14;21.80;91.50
38784;DHT22;24531;45.502;12.238;2023-05-07T06:20:40;21.90;91.40
38784;DHT22;24531;45.502;12.238;2023-05-07T06:23:05;22.10;91.20
38784;DHT22;24531;45.502;12.238;2023-05-07T06:25:31;22.30;91.00
38784;DHT22;24531;45.502;12.238;2023-05-07T06:27:56;22.40;90.80
38784;DHT22;24531;45.502;12.238;2023-05-07T06:30:22;22.50;90.50
38784;DHT22;24531;45.502;12.238;2023-05-07T06:32:48;22.50;90.20
38784;DHT22;24531;45.502;12.238;2023-05-07T06:35:13;22.70;90.10
38784;DHT22;24531;45.502;12.238;2023-05-07T06:37:39;22.70;90.00
38784;DHT22;24531;45.502;12.238;2023-05-07T06:40:05;23.00;89.90
38784;DHT22;24531;45.502;12.238;2023-05-07T06:42:32;23.40;89.80
38784;DHT22;24531;45.502;12.238;2023-05-07T06:44:58;23.90;89.40
38784;DHT22;24531;45.502;12.238;2023-05-07T06:47:23;24.10;88.50
38784;DHT22;24531;45.502;12.238;2023-05-07T06:49:49;24.20;88.10
38784;DHT22;24531;45.502;12.238;2023-05-07T06:52:15;24.20;87.90
38784;DHT22;24531;45.502;12.238;2023-05-07T06:54:40;24.30;87.60
38784;DHT22;24531;45.502;12.238;2023-05-07T06:57:06;24.50;87.10
38784;DHT22;24531;45.502;12.238;2023-05-07T06:59:32;24.80;86.30
38784;DHT22;24531;45.502;12.238;2023-05-07T07:01:58;25.10;85.70
38784;DHT22;24531;45.502;12.238;2023-05-07T07:04:23;25.30;85.30
38784;DHT22;24531;45.502;12.238;2023-05-07T07:06:49;25.50;84.90
38784;DHT22;24531;45.502;12.238;2023-05-07T07:09:16;25.70;84.50
38784;DHT22;24531;45.502;12.238;2023-05-07T07:11:42;25.90;84.20
38784;DHT22;24531;45.502;12.238;2023-05-07T07:14:08;25.90;83.90
38784;DHT22;24531;45.502;12.238;2023-05-07T07:16:33;26.00;83.60
38784;DHT22;24531;45.502;12.238;2023-05-07T07:18:59;26.00;82.90
38784;DHT22;24531;45.502;12.238;2023-05-07T07:21:25;26.10;82.80
38784;DHT22;24531;45.502;12.238;2023-05-07T07:23:50;26.30;82.50
38784;DHT22;24531;45.502;12.238;2023-05-07T07:26:17;26.40;82.00
38784;DHT22;24531;45.502;12.238;2023-05-07T07:28:46;26.50;81.10
38784;DHT22;24531;45.502;12.238;2023-05-07T07:31:12;26.60;80.50
38784;DHT22;24531;45.502;12.238;2023-05-07T07:33:38;26.70;79.80
38784;DHT22;24531;45.502;12.238;2023-05-07T07:36:05;26.70;79.70
38784;DHT22;24531;45.502;12.238;2023-05-07T07:38:31;26.70;79.20
38784;DHT22;24531;45.502;12.238;2023-05-07T07:40:57;26.80;79.20
38784;DHT22;24531;45.502;12.238;2023-05-07T07:43:23;26.90;78.70
38784;DHT22;24531;45.502;12.238;2023-05-07T07:45:48;27.00;77.90
38784;DHT22;24531;45.502;12.238;2023-05-07T07:48:14;26.90;77.60
38784;DHT22;24531;45.502;12.238;2023-05-07T07:50:40;26.90;77.30
38784;DHT22;24531;45.502;12.238;2023-05-07T07:53:05;27.10;77.00
38784;DHT22;24531;45.502;12.238;2023-05-07T07:55:31;27.30;76.70
38784;DHT22;24531;45.502;12.238;2023-05-07T07:57:57;27.60;77.10
38784;DHT22;24531;45.502;12.238;2023-05-07T08:00:23;27.80;77.10
38784;DHT22;24531;45.502;12.238;2023-05-07T08:02:48;28.00;76.50
38784;DHT22;24531;45.502;12.238;2023-05-07T08:05:14;27.90;76.30
38784;DHT22;24531;45.502;12.238;2023-05-07T08:07:40;28.00;75.90
38784;DHT22;24531;45.502;12.238;2023-05-07T08:10:06;28.20;75.70
38784;DHT22;24531;45.502;12.238;2023-05-07T08:12:32;28.50;75.30
38784;DHT22;24531;45.502;12.238;2023-05-07T08:14:57;28.70;74.00
38784;DHT22;24531;45.502;12.238;2023-05-07T08:17:23;28.80;73.80
38784;DHT22;24531;45.502;12.238;2023-05-07T08:19:49;29.00;73.40
38784;DHT22;24531;45.502;12.238;2023-05-07T08:22:14;29.00;72.70
38784;DHT22;24531;45.502;12.238;2023-05-07T08:24:41;29.30;73.00
38784;DHT22;24531;45.502;12.238;2023-05-07T08:27:06;29.80;72.20
38784;DHT22;24531;45.502;12.238;2023-05-07T08:29:32;30.40;70.80
38784;DHT22;24531;45.502;12.238;2023-05-07T08:31:57;31.10;69.40
38784;DHT22;24531;45.502;12.238;2023-05-07T08:34:23;31.60;68.10
38784;DHT22;24531;45.502;12.238;2023-05-07T08:36:49;31.90;67.00
38784;DHT22;24531;45.502;12.238;2023-05-07T08:39:17;31.80;66.40
38784;DHT22;24531;45.502;12.238;2023-05-07T08:41:44;31.80;65.90
38784;DHT22;24531;45.502;12.238;2023-05-07T08:44:14;31.90;65.30
38784;DHT22;24531;45.502;12.238;2023-05-07T08:46:41;32.00;65.40
38784;DHT22;24531;45.502;12.238;2023-05-07T08:49:08;31.90;65.10
38784;DHT22;24531;45.502;12.238;2023-05-07T08:51:34;31.50;64.50
38784;DHT22;24531;45.502;12.238;2023-05-07T08:54:01;31.10;64.20
38784;DHT22;24531;45.502;12.238;2023-05-07T08:56:27;30.90;64.70
38784;DHT22;24531;45.502;12.238;2023-05-07T08:58:52;30.70;65.00
38784;DHT22;24531;45.502;12.238;2023-05-07T09:01:22;30.70;64.70
38784;DHT22;24531;45.502;12.238;2023-05-07T09:03:47;30.70;64.90
38784;DHT22;24531;45.502;12.238;2023-05-07T09:06:13;30.60;65.20
38784;DHT22;24531;45.502;12.238;2023-05-07T09:08:39;30.50;65.20
38784;DHT22;24531;45.502;12.238;2023-05-07T09:11:05;30.60;65.40
38784;DHT22;24531;45.502;12.238;2023-05-07T09:13:30;30.90;65.20
38784;DHT22;24531;45.502;12.238;2023-05-07T09:15:56;31.00;65.30
38784;DHT22;24531;45.502;12.238;2023-05-07T09:18:24;30.80;65.10
38784;DHT22;24531;45.502;12.238;2023-05-07T09:20:50;30.50;64.80
38784;DHT22;24531;45.502;12.238;2023-05-07T09:23:16;30.10;64.70
38784;DHT22;24531;45.502;12.238;2023-05-07T09:25:41;29.80;64.70
38784;DHT22;24531;45.502;12.238;2023-05-07T09:28:07;29.60;64.00
38784;DHT22;24531;45.502;12.238;2023-05-07T09:30:33;29.60;63.90
38784;DHT22;24531;45.502;12.238;2023-05-07T09:33:01;29.70;63.50
38784;DHT22;24531;45.502;12.238;2023-05-07T09:35:27;29.70;63.60
38784;DHT22;24531;45.502;12.238;2023-05-07T09:37:58;29.30;62.30
38784;DHT22;24531;45.502;12.238;2023-05-07T09:40:26;28.90;62.90
38784;DHT22;24531;45.502;12.238;2023-05-07T09:42:52;28.70;63.40
38784;DHT22;24531;45.502;12.238;2023-05-07T09:45:37;28.50;63.60
38784;DHT22;24531;45.502;12.238;2023-05-07T09:48:05;28.50;63.80
38784;DHT22;24531;45.502;12.238;2023-05-07T09:50:47;29.00;64.00
38784;DHT22;24531;45.502;12.238;2023-05-07T09:53:14;29.60;63.80
38784;DHT22;24531;45.502;12.238;2023-05-07T09:55:41;30.10;63.00
38784;DHT22;24531;45.502;12.238;2023-05-07T09:58:07;30.10;62.40
38784;DHT22;24531;45.502;12.238;2023-05-07T10:00:35;29.90;62.80
38784;DHT22;24531;45.502;12.238;2023-05-07T10:03:01;29.70;63.00
38784;DHT22;24531;45.502;12.238;2023-05-07T10:05:28;29.60;63.90
38784;DHT22;24531;45.502;12.238;2023-05-07T10:07:54;29.50;64.40
38784;DHT22;24531;45.502;12.238;2023-05-07T10:10:21;29.50;64.10
38784;DHT22;24531;45.502;12.238;2023-05-07T10:12:47;29.60;63.60
38784;DHT22;24531;45.502;12.238;2023-05-07T10:15:13;29.50;63.20
38784;DHT22;24531;45.502;12.238;2023-05-07T10:17:40;29.40;63.20
38784;DHT22;24531;45.502;12.238;2023-05-07T10:20:07;29.60;63.60
38784;DHT22;24531;45.502;12.238;2023-05-07T10:22:39;29.70;63.60
38784;DHT22;24531;45.502;12.238;2023-05-07T10:25:26;29.80;62.90
38784;DHT22;24531;45.502;12.238;2023-05-07T10:27:55;29.80;63.20
38784;DHT22;24531;45.502;12.238;2023-05-07T10:33:09;29.80;62.00
38784;DHT22;24531;45.502;12.238;2023-05-07T10:35:43;29.60;61.50
38784;DHT22;24531;45.502;12.238;2023-05-07T10:38:10;29.60;62.00
38784;DHT22;24531;45.502;12.238;2023-05-07T10:40:36;29.70;61.60
38784;DHT22;24531;45.502;12.238;2023-05-07T10:43:03;29.80;61.50
38784;DHT22;24531;45.502;12.238;2023-05-07T10:45:33;29.90;61.10
38784;DHT22;24531;45.502;12.238;2023-05-07T10:48:11;30.10;61.00
38784;DHT22;24531;45.502;12.238;2023-05-07T10:50:42;30.10;60.20
38784;DHT22;24531;45.502;12.238;2023-05-07T10:56:37;30.10;60.40
38784;DHT22;24531;45.502;12.238;2023-05-07T10:58:38;30.20;60.10
38784;DHT22;24531;45.502;12.238;2023-05-07T11:01:03;30.20;59.30
38784;DHT22;24531;45.502;12.238;2023-05-07T11:03:29;30.10;58.80
38784;DHT22;24531;45.502;12.238;2023-05-07T11:06:15;30.00;59.40
38784;DHT22;24531;45.502;12.238;2023-05-07T11:08:54;30.00;59.30
38784;DHT22;24531;45.502;12.238;2023-05-07T11:11:49;29.90;58.70
38784;DHT22;24531;45.502;12.238;2023-05-07T11:17:06;29.80;58.80
38784;DHT22;24531;45.502;12.238;2023-05-07T11:19:51;29.80;59.60
38784;DHT22;24531;45.502;12.238;2023-05-07T11:25:06;30.00;58.70
38784;DHT22;24531;45.502;12.238;2023-05-07T11:27:32;29.90;57.90
38784;DHT22;24531;45.502;12.238;2023-05-07T11:29:59;29.80;57.50
38784;DHT22;24531;45.502;12.238;2023-05-07T11:32:30;29.80;57.80
38784;DHT22;24531;45.502;12.238;2023-05-07T11:35:00;29.90;57.90
38784;DHT22;24531;45.502;12.238;2023-05-07T11:37:27;29.90;57.70
38784;DHT22;24531;45.502;12.238;2023-05-07T11:40:05;29.90;57.70
38784;DHT22;24531;45.502;12.238;2023-05-07T11:42:33;30.00;57.60
38784;DHT22;24531;45.502;12.238;2023-05-07T11:45:00;29.90;58.40
38784;DHT22;24531;45.502;12.238;2023-05-07T11:47:26;30.00;58.10
38784;DHT22;24531;45.502;12.238;2023-05-07T11:49:55;30.10;58.00
38784;DHT22;24531;45.502;12.238;2023-05-07T11:52:23;30.30;57.60
38784;DHT22;24531;45.502;12.238;2023-05-07T11:54:50;30.20;57.00
38784;DHT22;24531;45.502;12.238;2023-05-07T11:57:16;30.10;56.40
38784;DHT22;24531;45.502;12.238;2023-05-07T11:59:42;30.10;56.40
38784;DHT22;24531;45.502;12.238;2023-05-07T12:02:09;30.20;56.60
38784;DHT22;24531;45.502;12.238;2023-05-07T12:04:35;30.30;56.20
38784;DHT22;24531;45.502;12.238;2023-05-07T12:07:01;30.30;56.10
38784;DHT22;24531;45.502;12.238;2023-05-07T12:09:26;30.30;56.00
38784;DHT22;24531;45.502;12.238;2023-05-07T12:11:52;30.30;55.60
38784;DHT22;24531;45.502;12.238;2023-05-07T12:14:18;30.20;55.80
38784;DHT22;24531;45.502;12.238;2023-05-07T12:16:44;30.10;55.90
38784;DHT22;24531;45.502;12.238;2023-05-07T12:19:11;29.90;55.90
38784;DHT22;24531;45.502;12.238;2023-05-07T12:21:40;29.90;55.90
38784;DHT22;24531;45.502;12.238;2023-05-07T12:24:06;29.70;55.80
38784;DHT22;24531;45.502;12.238;2023-05-07T12:26:37;29.70;55.60
38784;DHT22;24531;45.502;12.238;2023-05-07T12:29:03;29.60;55.10
38784;DHT22;24531;45.502;12.238;2023-05-07T12:31:29;29.40;55.00
38784;DHT22;24531;45.502;12.238;2023-05-07T12:33:54;29.40;54.80
38784;DHT22;24531;45.502;12.238;2023-05-07T12:36:20;29.40;54.90
38784;DHT22;24531;45.502;12.238;2023-05-07T12:38:49;29.50;54.70
38784;DHT22;24531;45.502;12.238;2023-05-07T12:41:15;29.40;54.20
38784;DHT22;24531;45.502;12.238;2023-05-07T12:43:44;29.40;54.10
38784;DHT22;24531;45.502;12.238;2023-05-07T12:46:11;29.50;53.50
38784;DHT22;24531;45.502;12.238;2023-05-07T12:48:43;29.50;53.20
38784;DHT22;24531;45.502;12.238;2023-05-07T12:51:10;29.30;52.80
38784;DHT22;24531;45.502;12.238;2023-05-07T12:53:42;29.10;52.40
38784;DHT22;24531;45.502;12.238;2023-05-07T12:56:08;28.80;52.30
38784;DHT22;24531;45.502;12.238;2023-05-07T12:58:35;28.70;52.50
38784;DHT22;24531;45.502;12.238;2023-05-07T13:01:05;28.80;52.80
38784;DHT22;24531;45.502;12.238;2023-05-07T13:03:32;28.90;52.60
38784;DHT22;24531;45.502;12.238;2023-05-07T13:06:00;29.00;52.80
38784;DHT22;24531;45.502;12.238;2023-05-07T13:08:38;29.20;52.50
38784;DHT22;24531;45.502;12.238;2023-05-07T13:11:07;29.20;51.80
38784;DHT22;24531;45.502;12.238;2023-05-07T13:13:35;29.30;51.60
38784;DHT22;24531;45.502;12.238;2023-05-07T13:16:05;29.40;51.30
38784;DHT22;24531;45.502;12.238;2023-05-07T13:18:32;29.40;51.40
38784;DHT22;24531;45.502;12.238;2023-05-07T13:20:58;29.50;51.80
38784;DHT22;24531;45.502;12.238;2023-05-07T13:23:24;29.60;51.60
38784;DHT22;24531;45.502;12.238;2023-05-07T13:25:50;29.60;51.60
38784;DHT22;24531;45.502;12.238;2023-05-07T13:28:16;29.60;51.50
38784;DHT22;24531;45.502;12.238;2023-05-07T13:30:42;29.50;51.60
38784;DHT22;24531;45.502;12.238;2023-05-07T13:33:09;29.40;51.80
38784;DHT22;24531;45.502;12.238;2023-05-07T13:35:35;29.50;51.50
38784;DHT22;24531;45.502;12.238;2023-05-07T13:38:00;29.50;51.40
38784;DHT22;24531;45.502;12.238;2023-05-07T13:40:26;29.40;52.00
38784;DHT22;24531;45.502;12.238;2023-05-07T13:42:52;29.40;51.60
38784;DHT22;24531;45.502;12.238;2023-05-07T13:45:18;29.30;51.70
38784;DHT22;24531;45.502;12.238;2023-05-07T13:47:44;29.30;52.50
38784;DHT22;24531;45.502;12.238;2023-05-07T13:50:11;29.30;52.20
38784;DHT22;24531;45.502;12.238;2023-05-07T13:52:40;29.30;51.90
38784;DHT22;24531;45.502;12.238;2023-05-07T13:55:06;29.30;52.10
38784;DHT22;24531;45.502;12.238;2023-05-07T13:57:32;29.30;52.40
38784;DHT22;24531;45.502;12.238;2023-05-07T13:59:58;29.30;52.20
38784;DHT22;24531;45.502;12.238;2023-05-07T14:02:23;29.30;51.80
38784;DHT22;24531;45.502;12.238;2023-05-07T14:04:49;29.20;51.90
38784;DHT22;24531;45.502;12.238;2023-05-07T14:07:15;29.20;52.20
38784;DHT22;24531;45.502;12.238;2023-05-07T14:09:40;29.20;52.30
38784;DHT22;24531;45.502;12.238;2023-05-07T14:12:07;29.10;52.60
38784;DHT22;24531;45.502;12.238;2023-05-07T14:14:32;29.10;53.30
38784;DHT22;24531;45.502;12.238;2023-05-07T14:16:58;29.00;53.70
38784;DHT22;24531;45.502;12.238;2023-05-07T14:19:23;28.90;54.00
38784;DHT22;24531;45.502;12.238;2023-05-07T14:21:49;28.80;54.30
38784;DHT22;24531;45.502;12.238;2023-05-07T14:24:15;28.80;54.80
38784;DHT22;24531;45.502;12.238;2023-05-07T14:26:40;28.80;55.10
38784;DHT22;24531;45.502;12.238;2023-05-07T14:29:06;28.90;55.30
38784;DHT22;24531;45.502;12.238;2023-05-07T14:31:31;28.90;54.50
38784;DHT22;24531;45.502;12.238;2023-05-07T14:33:58;28.80;54.20
38784;DHT22;24531;45.502;12.238;2023-05-07T14:36:24;28.80;54.20
38784;DHT22;24531;45.502;12.238;2023-05-07T14:38:52;28.80;53.80
38784;DHT22;24531;45.502;12.238;2023-05-07T14:41:18;28.80;53.20
38784;DHT22;24531;45.502;12.238;2023-05-07T14:43:44;28.70;52.80
38784;DHT22;24531;45.502;12.238;2023-05-07T14:46:16;28.60;52.60
38784;DHT22;24531;45.502;12.238;2023-05-07T14:48:43;28.50;52.60
38784;DHT22;24531;45.502;12.238;2023-05-07T14:51:08;28.50;52.80
38784;DHT22;24531;45.502;12.238;2023-05-07T14:53:34;28.60;52.70
38784;DHT22;24531;45.502;12.238;2023-05-07T14:55:59;28.60;53.10
38784;DHT22;24531;45.502;12.238;2023-05-07T14:58:25;28.60;53.60
38784;DHT22;24531;45.502;12.238;2023-05-07T15:00:51;28.60;53.80
38784;DHT22;24531;45.502;12.238;2023-05-07T15:03:17;28.60;53.80
38784;DHT22;24531;45.502;12.238;2023-05-07T15:05:42;28.60;54.00
38784;DHT22;24531;45.502;12.238;2023-05-07T15:08:09;28.60;54.40
38784;DHT22;24531;45.502;12.238;2023-05-07T15:10:38;28.60;55.10
38784;DHT22;24531;45.502;12.238;2023-05-07T15:13:07;28.60;55.30
38784;DHT22;24531;45.502;12.238;2023-05-07T15:15:33;28.60;55.00
38784;DHT22;24531;45.502;12.238;2023-05-07T15:17:58;28.40;55.10
38784;DHT22;24531;45.502;12.238;2023-05-07T15:20:26;28.30;55.40
38784;DHT22;24531;45.502;12.238;2023-05-07T15:22:51;28.30;55.50